Airfield :
LOGIN :

Register | Disclaimer

   EN    FR    IT 

 










Legend :    VFR   Marginal VFR   IFR   Intensive IFR   Very Intensive IFR
Visi :
Ceiling :
>= 8 km
>= 3000ft
5 to 8 km
1000 to 3000 ft
1500m to 5 km
500 to 1000 ft
800 to 1500m
200 to 500 ft
< 800m
< 200 ft
Symbols :   Thunderstorms  Fog  Heavy snow  Heavy precipitations  Wind > 20 kt
SIGMETs :     Misc.  Thunderstorms  Icing  Turbulence  Mountain Waves  Volcanic Ashes






- Airport Elevation : 55 ft
- IATA code : DSA


EGCN - Robin Hood Doncaster Sheffield

CURRENT METAR :
  • 200420Z 19016KT 9999 BKN023 OVC029 09/06 Q1004

EXPIRED METARs :
  • 200350Z AUTO 20019KT 9999 BKN024/// 10/07 Q1004
  • 200320Z AUTO 20015KT 9999 BKN022/// OVC027/// 09/07 Q1005
  • 200250Z AUTO 20019KT 9999 BKN022/// 09/07 Q1005
  • 200220Z 21014KT 9999 OVC021 10/07 Q1006

TAF TAF EGCN
Valid from the 20 at 00:00 until the 21 at 00:00 UTC


192301Z 2000/2024 20014KT 9999 SCT012
TEMPO 2000/2014 22017G27KT 6000 RA BKN012
PROB30
TEMPO 2000/2009 BKN008
PROB30
TEMPO 2009/2013 25025G37KT 3000 +RA BKN006
BECMG 2011/2014 28015G25KT
PROB30
TEMPO 2014/2021 8000 SHRA



MET'MAP, your aeronautical weather chart ! - Copyright ORBIFLY December 2007 - Disclaimer

ORBIFLY MET'MAP TEAM :

Programming & Development : Alexandra Zaïnal
Concept & original design : Baudouin d'Aumeries
Assistance for programming : Marc-Olivier Méhu
Technical & hardware support : Manuel Goepfert

Contact : metmap@orbifly.com




SOURCES & CREDITS :

   NOAA